John_paul K — PBHY — position and weather

sailwx.info

Track history (hours):
 
Tides and Currents Weather Stations Pressure Air Temp Water Temp Dewpoint Dewpoint Depression Visibility Wind Speed Wind Dir Waves Ship Positions

John_paul K

Last reported at 2016-May-02 22:33 UTC. Time now 2016-May-05 06:43 UTC.
Position N 37°12' W 009°40'.

Length 90 m; draft 6 m.

Type: Cargo ship. MMSI: 245181000.

Date/timePositionNaut miles runAvg speedWind from/ knotsBaromVisibWave heightAir tempDewpointWater temp
2016-May-02 22:33N 37°12' W 009°40'9 8.7
2016-May-02 21:33N 37°21' W 009°41'9 9.1
2016-May-02 20:32N 37°30' W 009°44'9 8.8
2016-May-02 19:32N 37°38' W 009°46'9 9.1
2016-May-02 18:33N 37°47' W 009°49'9 9.4
2016-May-02 17:33N 37°56' W 009°52'9 9.4
2016-May-02 16:33N 38°05' W 009°54'9 9.1
2016-May-02 15:33N 38°14' W 009°57'10 9.6
2016-May-02 14:33N 38°23' W 009°60'10 9.8
2016-May-02 13:33N 38°33' W 010°02'  
2016-Apr-28 16:33N 52°20' W 005°49'118 9.1
2016-Apr-28 03:33N 54°16' W 005°23'10 9.5
2016-Apr-28 02:33N 54°26' W 005°21'10 9.8
2016-Apr-28 01:33N 54°36' W 005°19'1110.7
2016-Apr-28 00:33N 54°46' W 005°18'1111.3
2016-Apr-27 23:33N 54°58' W 005°17'4010.0
2016-Apr-27 19:32N 55°36' W 005°00'1010.3
2016-Apr-27 18:33N 55°46' W 004°58'1010.3
2016-Apr-27 17:33N 55°56' W 004°54'8 8.4
2016-Apr-27 16:33N 55°56' W 004°39'10 9.8
2016-Apr-27 15:33N 55°53' W 004°23'1 1.4
2016-Apr-27 14:33N 55°52' W 004°21'0 0.0
2016-Apr-27 13:33N 55°52' W 004°21'0 0.0
2016-Apr-27 12:33N 55°52' W 004°21'0 0.0
2016-Apr-27 11:33N 55°52' W 004°21'0 0.0
2016-Apr-27 10:30N 55°52' W 004°21'0 0.0
2016-Apr-27 09:33N 55°52' W 004°21'0 0.0
2016-Apr-27 08:33N 55°52' W 004°21'0 0.0
2016-Apr-27 07:33N 55°52' W 004°21'0 0.0
2016-Apr-27 06:33N 55°52' W 004°21'0 0.0
2016-Apr-27 05:33N 55°52' W 004°21'0 0.0
2016-Apr-27 04:33N 55°52' W 004°21'0 0.0
2016-Apr-27 03:33N 55°52' W 004°21'0 0.0
2016-Apr-27 02:33N 55°52' W 004°21'0 0.0
2016-Apr-27 01:33N 55°52' W 004°21'0 0.0
2016-Apr-27 00:33N 55°52' W 004°21'0 0.0
2016-Apr-26 23:33N 55°52' W 004°21'0 0.0
2016-Apr-26 22:33N 55°52' W 004°21'0 0.0
2016-Apr-26 21:33N 55°52' W 004°21'0 0.0
2016-Apr-26 20:33N 55°52' W 004°21'0 0.0
2016-Apr-26 19:33N 55°52' W 004°21'0 0.0
2016-Apr-26 18:33N 55°52' W 004°21'0 0.0
2016-Apr-26 17:32N 55°52' W 004°21'0 0.0
2016-Apr-26 16:33N 55°52' W 004°21'0 0.0
2016-Apr-26 15:32N 55°52' W 004°21'0 0.0
2016-Apr-26 14:32N 55°52' W 004°21'0 0.0
2016-Apr-26 13:32N 55°52' W 004°21'0 0.0
2016-Apr-26 12:32N 55°52' W 004°21'0 0.0
2016-Apr-26 11:32N 55°52' W 004°21'0 0.0
2016-Apr-26 10:32N 55°52' W 004°21'0 0.0
2016-Apr-26 09:32N 55°52' W 004°21'0 0.0
2016-Apr-26 08:32N 55°52' W 004°21'0 0.0
2016-Apr-26 07:32N 55°52' W 004°21'0 0.0
2016-Apr-26 06:32N 55°52' W 004°21'0 0.0
2016-Apr-26 05:32N 55°52' W 004°21'0 0.0
2016-Apr-26 04:29N 55°52' W 004°21'0 0.0
2016-Apr-26 03:32N 55°52' W 004°21'0 0.0
2016-Apr-26 02:32N 55°52' W 004°21'0 0.0
2016-Apr-26 01:32N 55°52' W 004°21'0 0.0
2016-Apr-26 00:32N 55°52' W 004°21'0 0.0
2016-Apr-25 23:32N 55°52' W 004°21'0 0.0
2016-Apr-25 22:32N 55°52' W 004°21'0 0.0
2016-Apr-25 21:32N 55°52' W 004°21'0 0.0
2016-Apr-25 20:32N 55°52' W 004°21'0 0.0
2016-Apr-25 19:32N 55°52' W 004°21'0 0.1
2016-Apr-25 18:33N 55°52' W 004°21'7 7.3
2016-Apr-25 17:33N 55°56' W 004°32'9 9.3
2016-Apr-25 16:34N 55°58' W 004°48'7 6.0
2016-Apr-25 15:25N 55°53' W 004°56'6 6.7
2016-Apr-25 14:33N 55°47' W 004°58'10 5.2
2016-Apr-25 12:33N 55°37' W 004°60'29 8.7
2016-Apr-25 09:14N 55°09' W 005°14'6 8.8
2016-Apr-25 08:33N 55°03' W 005°15'8 7.8
2016-Apr-25 07:33N 54°55' W 005°16'9 8.5
2016-Apr-25 06:33N 54°47' W 005°17'8 8.3
2016-Apr-25 05:34N 54°38' W 005°19'9 9.0
2016-Apr-25 04:34N 54°29' W 005°20'9 9.2
2016-Apr-25 03:34N 54°20' W 005°22'9 8.9
2016-Apr-25 02:33N 54°11' W 005°23'  
Track history (hours):
 
Tides and Currents Weather Stations Pressure Air Temp Water Temp Dewpoint Dewpoint Depression Visibility Wind Speed Wind Dir Waves Ship Positions

John_paul K

Last reported at 2016-May-02 22:33 UTC. Time now 2016-May-05 06:43 UTC.
Position N 37°12' W 009°40'.

Length 90 m; draft 6 m.

Type: Cargo ship. MMSI: 245181000.

Date/timePositionNaut miles runAvg speedWind from/ knotsBaromVisibWave heightAir tempDewpointWater temp
2016-May-02 22:33N 37°12' W 009°40'9 8.7
2016-May-02 21:33N 37°21' W 009°41'9 9.1
2016-May-02 20:32N 37°30' W 009°44'9 8.8
2016-May-02 19:32N 37°38' W 009°46'9 9.1
2016-May-02 18:33N 37°47' W 009°49'9 9.4
2016-May-02 17:33N 37°56' W 009°52'9 9.4
2016-May-02 16:33N 38°05' W 009°54'9 9.1
2016-May-02 15:33N 38°14' W 009°57'10 9.6
2016-May-02 14:33N 38°23' W 009°60'10 9.8
2016-May-02 13:33N 38°33' W 010°02'  
2016-Apr-28 16:33N 52°20' W 005°49'118 9.1
2016-Apr-28 03:33N 54°16' W 005°23'10 9.5
2016-Apr-28 02:33N 54°26' W 005°21'10 9.8
2016-Apr-28 01:33N 54°36' W 005°19'1110.7
2016-Apr-28 00:33N 54°46' W 005°18'1111.3
2016-Apr-27 23:33N 54°58' W 005°17'4010.0
2016-Apr-27 19:32N 55°36' W 005°00'1010.3
2016-Apr-27 18:33N 55°46' W 004°58'1010.3
2016-Apr-27 17:33N 55°56' W 004°54'8 8.4
2016-Apr-27 16:33N 55°56' W 004°39'10 9.8
2016-Apr-27 15:33N 55°53' W 004°23'1 1.4
2016-Apr-27 14:33N 55°52' W 004°21'0 0.0
2016-Apr-27 13:33N 55°52' W 004°21'0 0.0
2016-Apr-27 12:33N 55°52' W 004°21'0 0.0
2016-Apr-27 11:33N 55°52' W 004°21'0 0.0
2016-Apr-27 10:30N 55°52' W 004°21'0 0.0
2016-Apr-27 09:33N 55°52' W 004°21'0 0.0
2016-Apr-27 08:33N 55°52' W 004°21'0 0.0
2016-Apr-27 07:33N 55°52' W 004°21'0 0.0
2016-Apr-27 06:33N 55°52' W 004°21'0 0.0
2016-Apr-27 05:33N 55°52' W 004°21'0 0.0
2016-Apr-27 04:33N 55°52' W 004°21'0 0.0
2016-Apr-27 03:33N 55°52' W 004°21'0 0.0
2016-Apr-27 02:33N 55°52' W 004°21'0 0.0
2016-Apr-27 01:33N 55°52' W 004°21'0 0.0
2016-Apr-27 00:33N 55°52' W 004°21'0 0.0
2016-Apr-26 23:33N 55°52' W 004°21'0 0.0
2016-Apr-26 22:33N 55°52' W 004°21'0 0.0
2016-Apr-26 21:33N 55°52' W 004°21'0 0.0
2016-Apr-26 20:33N 55°52' W 004°21'0 0.0
2016-Apr-26 19:33N 55°52' W 004°21'0 0.0
2016-Apr-26 18:33N 55°52' W 004°21'0 0.0
2016-Apr-26 17:32N 55°52' W 004°21'0 0.0
2016-Apr-26 16:33N 55°52' W 004°21'0 0.0
2016-Apr-26 15:32N 55°52' W 004°21'0 0.0
2016-Apr-26 14:32N 55°52' W 004°21'0 0.0
2016-Apr-26 13:32N 55°52' W 004°21'0 0.0
2016-Apr-26 12:32N 55°52' W 004°21'0 0.0
2016-Apr-26 11:32N 55°52' W 004°21'0 0.0
2016-Apr-26 10:32N 55°52' W 004°21'0 0.0
2016-Apr-26 09:32N 55°52' W 004°21'0 0.0
2016-Apr-26 08:32N 55°52' W 004°21'0 0.0
2016-Apr-26 07:32N 55°52' W 004°21'0 0.0
2016-Apr-26 06:32N 55°52' W 004°21'0 0.0
2016-Apr-26 05:32N 55°52' W 004°21'0 0.0
2016-Apr-26 04:29N 55°52' W 004°21'0 0.0
2016-Apr-26 03:32N 55°52' W 004°21'0 0.0
2016-Apr-26 02:32N 55°52' W 004°21'0 0.0
2016-Apr-26 01:32N 55°52' W 004°21'0 0.0
2016-Apr-26 00:32N 55°52' W 004°21'0 0.0
2016-Apr-25 23:32N 55°52' W 004°21'0 0.0
2016-Apr-25 22:32N 55°52' W 004°21'0 0.0
2016-Apr-25 21:32N 55°52' W 004°21'0 0.0
2016-Apr-25 20:32N 55°52' W 004°21'0 0.0
2016-Apr-25 19:32N 55°52' W 004°21'0 0.1
2016-Apr-25 18:33N 55°52' W 004°21'7 7.3
2016-Apr-25 17:33N 55°56' W 004°32'9 9.3
2016-Apr-25 16:34N 55°58' W 004°48'7 6.0
2016-Apr-25 15:25N 55°53' W 004°56'6 6.7
2016-Apr-25 14:33N 55°47' W 004°58'10 5.2
2016-Apr-25 12:33N 55°37' W 004°60'29 8.7
2016-Apr-25 09:14N 55°09' W 005°14'6 8.8
2016-Apr-25 08:33N 55°03' W 005°15'8 7.8
2016-Apr-25 07:33N 54°55' W 005°16'9 8.5
2016-Apr-25 06:33N 54°47' W 005°17'8 8.3
2016-Apr-25 05:34N 54°38' W 005°19'9 9.0
2016-Apr-25 04:34N 54°29' W 005°20'9 9.2
2016-Apr-25 03:34N 54°20' W 005°22'9 8.9
2016-Apr-25 02:33N 54°11' W 005°23'  

Dump ship's entire track history